Terminal Aerodrome Forecast
Issued by NWS Sterling, VA

Current Version | Previous Version | Graphics & Text | Print | Product List | Glossary On
Versions: 1 2 3 4 5 6 7 8 9 10 11 12 13 14 15 16 17 18 19 20 21 22 23 24
000
FTUS41 KLWX 230500
TAFDCA
TAF
KDCA 230538Z 2306/2406 21007KT P6SM BKN100
     FM230900 20007KT P6SM SCT080
     FM232000 17005KT P6SM BKN110
     FM240100 14007KT 5SM -RA OVC060
     FM240200 13007KT 5SM RA OVC040
     FM240300 13009KT 3SM RA OVC020 WS020/16040KT=

USA.gov is the U.S. government's official web portal to all federal, state and local government web resources and services.